Terminal Aerodrome Forecast
Issued by NWS

Home | Current Version | Previous Version | Text Only | Print | Product List | Glossary On
Versions: 1 2 3 4 5 6 7 8 9 10 11 12 13 14 15 16
506
FTUS44 KBMX 201720
TAFTCL
TAF
KTCL 201720Z 2018/2118 05005KT P6SM FEW040
     FM210100 00000KT P6SM SCT250
     FM210900 08001KT 5SM BR SCT200
     FM211400 08002KT P6SM SCT100=

USA.gov is the U.S. government's official web portal to all federal, state and local government web resources and services.